sensor_id;sensor_type;location;lat;lon;timestamp;temperature;humidity
9939;DHT22;5008;50.656;7.188;2022-10-16T00:00:43;14.00;99.90
9939;DHT22;5008;50.656;7.188;2022-10-16T00:03:11;14.00;99.90
9939;DHT22;5008;50.656;7.188;2022-10-16T00:05:40;14.00;99.90
9939;DHT22;5008;50.656;7.188;2022-10-16T00:08:07;14.00;99.90
9939;DHT22;5008;50.656;7.188;2022-10-16T00:10:35;14.00;99.90
9939;DHT22;5008;50.656;7.188;2022-10-16T00:13:08;14.00;99.90
9939;DHT22;5008;50.656;7.188;2022-10-16T00:15:36;14.00;99.90
9939;DHT22;5008;50.656;7.188;2022-10-16T00:18:07;14.00;99.90
9939;DHT22;5008;50.656;7.188;2022-10-16T00:20:35;14.00;99.90
9939;DHT22;5008;50.656;7.188;2022-10-16T00:23:03;14.00;99.90
9939;DHT22;5008;50.656;7.188;2022-10-16T00:25:30;14.00;99.90
9939;DHT22;5008;50.656;7.188;2022-10-16T00:27:59;14.10;99.90
9939;DHT22;5008;50.656;7.188;2022-10-16T00:30:29;14.10;99.90
9939;DHT22;5008;50.656;7.188;2022-10-16T00:32:59;14.10;99.90
9939;DHT22;5008;50.656;7.188;2022-10-16T00:35:26;14.00;99.90
9939;DHT22;5008;50.656;7.188;2022-10-16T00:37:57;13.90;99.90
9939;DHT22;5008;50.656;7.188;2022-10-16T00:40:24;13.90;99.90
9939;DHT22;5008;50.656;7.188;2022-10-16T00:42:51;13.90;99.90
9939;DHT22;5008;50.656;7.188;2022-10-16T00:45:18;13.90;99.90
9939;DHT22;5008;50.656;7.188;2022-10-16T00:47:46;13.90;99.90
9939;DHT22;5008;50.656;7.188;2022-10-16T00:50:18;13.80;99.90
9939;DHT22;5008;50.656;7.188;2022-10-16T00:52:50;13.80;99.90
9939;DHT22;5008;50.656;7.188;2022-10-16T00:55:19;13.80;99.90
9939;DHT22;5008;50.656;7.188;2022-10-16T00:57:47;13.80;99.90
9939;DHT22;5008;50.656;7.188;2022-10-16T01:00:17;13.80;99.90
9939;DHT22;5008;50.656;7.188;2022-10-16T01:02:44;13.80;99.90
9939;DHT22;5008;50.656;7.188;2022-10-16T01:05:17;13.70;99.90
9939;DHT22;5008;50.656;7.188;2022-10-16T01:07:49;13.70;99.90
9939;DHT22;5008;50.656;7.188;2022-10-16T01:10:26;13.70;99.90
9939;DHT22;5008;50.656;7.188;2022-10-16T01:12:58;13.70;99.90
9939;DHT22;5008;50.656;7.188;2022-10-16T01:15:29;13.70;99.90
9939;DHT22;5008;50.656;7.188;2022-10-16T01:18:01;13.70;99.90
9939;DHT22;5008;50.656;7.188;2022-10-16T01:20:37;13.80;99.90
9939;DHT22;5008;50.656;7.188;2022-10-16T01:23:14;13.80;99.90
9939;DHT22;5008;50.656;7.188;2022-10-16T01:26:10;13.70;99.90
9939;DHT22;5008;50.656;7.188;2022-10-16T01:28:44;13.60;99.90
9939;DHT22;5008;50.656;7.188;2022-10-16T01:31:16;13.60;99.90
9939;DHT22;5008;50.656;7.188;2022-10-16T01:33:47;13.70;99.90
9939;DHT22;5008;50.656;7.188;2022-10-16T01:36:17;13.60;99.90
9939;DHT22;5008;50.656;7.188;2022-10-16T01:38:48;13.60;99.90
9939;DHT22;5008;50.656;7.188;2022-10-16T01:41:18;13.50;99.90
9939;DHT22;5008;50.656;7.188;2022-10-16T01:43:51;13.50;99.90
9939;DHT22;5008;50.656;7.188;2022-10-16T01:46:21;13.50;99.90
9939;DHT22;5008;50.656;7.188;2022-10-16T01:48:50;13.60;99.90
9939;DHT22;5008;50.656;7.188;2022-10-16T01:51:18;13.60;99.90
9939;DHT22;5008;50.656;7.188;2022-10-16T01:53:48;13.50;99.90
9939;DHT22;5008;50.656;7.188;2022-10-16T01:56:15;13.40;99.90
9939;DHT22;5008;50.656;7.188;2022-10-16T01:58:48;13.40;99.90
9939;DHT22;5008;50.656;7.188;2022-10-16T02:01:19;13.40;99.90
9939;DHT22;5008;50.656;7.188;2022-10-16T02:03:51;13.40;99.90
9939;DHT22;5008;50.656;7.188;2022-10-16T02:06:19;13.40;99.90
9939;DHT22;5008;50.656;7.188;2022-10-16T02:08:46;13.50;99.90
9939;DHT22;5008;50.656;7.188;2022-10-16T02:11:13;13.50;99.90
9939;DHT22;5008;50.656;7.188;2022-10-16T02:13:45;13.50;99.90
9939;DHT22;5008;50.656;7.188;2022-10-16T02:16:14;13.50;99.90
9939;DHT22;5008;50.656;7.188;2022-10-16T02:18:43;13.50;99.90
9939;DHT22;5008;50.656;7.188;2022-10-16T02:21:15;13.60;99.90
9939;DHT22;5008;50.656;7.188;2022-10-16T02:23:50;13.60;99.90
9939;DHT22;5008;50.656;7.188;2022-10-16T02:26:25;13.60;99.90
9939;DHT22;5008;50.656;7.188;2022-10-16T02:28:56;13.50;99.90
9939;DHT22;5008;50.656;7.188;2022-10-16T02:31:28;13.50;99.90
9939;DHT22;5008;50.656;7.188;2022-10-16T02:33:59;13.50;99.90
9939;DHT22;5008;50.656;7.188;2022-10-16T02:36:26;13.50;99.90
9939;DHT22;5008;50.656;7.188;2022-10-16T02:38:54;13.60;99.90
9939;DHT22;5008;50.656;7.188;2022-10-16T02:41:21;13.70;99.90
9939;DHT22;5008;50.656;7.188;2022-10-16T02:43:48;13.70;99.90
9939;DHT22;5008;50.656;7.188;2022-10-16T02:46:16;13.70;99.90
9939;DHT22;5008;50.656;7.188;2022-10-16T02:48:44;13.70;99.90
9939;DHT22;5008;50.656;7.188;2022-10-16T02:51:12;13.70;99.90
9939;DHT22;5008;50.656;7.188;2022-10-16T02:53:39;13.80;99.90
9939;DHT22;5008;50.656;7.188;2022-10-16T02:56:06;13.80;99.90
9939;DHT22;5008;50.656;7.188;2022-10-16T02:58:33;13.80;99.90
9939;DHT22;5008;50.656;7.188;2022-10-16T03:00:59;13.80;99.90
9939;DHT22;5008;50.656;7.188;2022-10-16T03:03:26;13.80;99.90
9939;DHT22;5008;50.656;7.188;2022-10-16T03:05:53;13.80;99.90
9939;DHT22;5008;50.656;7.188;2022-10-16T03:08:21;13.80;99.90
9939;DHT22;5008;50.656;7.188;2022-10-16T03:10:50;13.80;99.90
9939;DHT22;5008;50.656;7.188;2022-10-16T03:13:17;13.70;99.90
9939;DHT22;5008;50.656;7.188;2022-10-16T03:15:46;13.70;99.90
9939;DHT22;5008;50.656;7.188;2022-10-16T03:18:13;13.70;99.90
9939;DHT22;5008;50.656;7.188;2022-10-16T03:20:40;13.80;99.90
9939;DHT22;5008;50.656;7.188;2022-10-16T03:23:07;13.80;99.90
9939;DHT22;5008;50.656;7.188;2022-10-16T03:25:35;13.90;99.90
9939;DHT22;5008;50.656;7.188;2022-10-16T03:28:03;14.00;99.90
9939;DHT22;5008;50.656;7.188;2022-10-16T03:30:30;14.00;99.90
9939;DHT22;5008;50.656;7.188;2022-10-16T03:32:57;13.90;99.90
9939;DHT22;5008;50.656;7.188;2022-10-16T03:35:24;13.90;99.90
9939;DHT22;5008;50.656;7.188;2022-10-16T03:37:51;13.90;99.90
9939;DHT22;5008;50.656;7.188;2022-10-16T03:40:18;14.00;99.90
9939;DHT22;5008;50.656;7.188;2022-10-16T03:42:46;14.10;99.90
9939;DHT22;5008;50.656;7.188;2022-10-16T03:45:13;14.20;99.90
9939;DHT22;5008;50.656;7.188;2022-10-16T03:47:41;14.30;99.90
9939;DHT22;5008;50.656;7.188;2022-10-16T03:50:08;14.40;99.90
9939;DHT22;5008;50.656;7.188;2022-10-16T03:52:35;14.40;99.90
9939;DHT22;5008;50.656;7.188;2022-10-16T03:55:02;14.40;99.90
9939;DHT22;5008;50.656;7.188;2022-10-16T03:57:29;14.30;99.90
9939;DHT22;5008;50.656;7.188;2022-10-16T03:59:58;14.40;99.90
9939;DHT22;5008;50.656;7.188;2022-10-16T04:02:24;14.40;99.90
9939;DHT22;5008;50.656;7.188;2022-10-16T04:04:52;14.30;99.90
9939;DHT22;5008;50.656;7.188;2022-10-16T04:07:19;14.40;99.90
9939;DHT22;5008;50.656;7.188;2022-10-16T04:09:45;14.30;99.90
9939;DHT22;5008;50.656;7.188;2022-10-16T04:12:12;14.40;99.90
9939;DHT22;5008;50.656;7.188;2022-10-16T04:14:39;14.40;99.90
9939;DHT22;5008;50.656;7.188;2022-10-16T04:17:07;14.40;99.90
9939;DHT22;5008;50.656;7.188;2022-10-16T04:19:34;14.40;99.90
9939;DHT22;5008;50.656;7.188;2022-10-16T04:22:01;14.30;99.90
9939;DHT22;5008;50.656;7.188;2022-10-16T04:24:28;14.30;99.90
9939;DHT22;5008;50.656;7.188;2022-10-16T04:26:54;14.40;99.90
9939;DHT22;5008;50.656;7.188;2022-10-16T04:29:22;14.40;99.90
9939;DHT22;5008;50.656;7.188;2022-10-16T04:31:49;14.50;99.90
9939;DHT22;5008;50.656;7.188;2022-10-16T04:34:17;14.50;99.90
9939;DHT22;5008;50.656;7.188;2022-10-16T04:36:44;14.60;99.90
9939;DHT22;5008;50.656;7.188;2022-10-16T04:39:13;14.60;99.90
9939;DHT22;5008;50.656;7.188;2022-10-16T04:41:40;14.60;99.90
9939;DHT22;5008;50.656;7.188;2022-10-16T04:44:06;14.60;99.90
9939;DHT22;5008;50.656;7.188;2022-10-16T04:46:33;14.70;99.90
9939;DHT22;5008;50.656;7.188;2022-10-16T04:49:00;14.70;99.90
9939;DHT22;5008;50.656;7.188;2022-10-16T04:51:28;14.70;99.90
9939;DHT22;5008;50.656;7.188;2022-10-16T04:53:55;14.70;99.90
9939;DHT22;5008;50.656;7.188;2022-10-16T04:56:22;14.70;99.90
9939;DHT22;5008;50.656;7.188;2022-10-16T04:58:49;14.70;99.90
9939;DHT22;5008;50.656;7.188;2022-10-16T05:01:16;14.70;99.90
9939;DHT22;5008;50.656;7.188;2022-10-16T05:03:43;14.70;99.90
9939;DHT22;5008;50.656;7.188;2022-10-16T05:06:10;14.70;99.90
9939;DHT22;5008;50.656;7.188;2022-10-16T05:08:38;14.80;99.90
9939;DHT22;5008;50.656;7.188;2022-10-16T05:11:05;14.80;99.90
9939;DHT22;5008;50.656;7.188;2022-10-16T05:13:32;14.80;99.90
9939;DHT22;5008;50.656;7.188;2022-10-16T05:15:58;14.80;99.90
9939;DHT22;5008;50.656;7.188;2022-10-16T05:18:25;14.80;99.90
9939;DHT22;5008;50.656;7.188;2022-10-16T05:20:52;14.90;99.90
9939;DHT22;5008;50.656;7.188;2022-10-16T05:23:19;14.90;99.90
9939;DHT22;5008;50.656;7.188;2022-10-16T05:25:53;14.90;99.90
9939;DHT22;5008;50.656;7.188;2022-10-16T05:28:21;14.90;99.90
9939;DHT22;5008;50.656;7.188;2022-10-16T05:30:47;14.80;99.90
9939;DHT22;5008;50.656;7.188;2022-10-16T05:33:14;14.90;99.90
9939;DHT22;5008;50.656;7.188;2022-10-16T05:35:41;14.80;99.90
9939;DHT22;5008;50.656;7.188;2022-10-16T05:38:09;14.80;99.90
9939;DHT22;5008;50.656;7.188;2022-10-16T05:40:36;14.80;99.90
9939;DHT22;5008;50.656;7.188;2022-10-16T05:43:04;14.80;99.90
9939;DHT22;5008;50.656;7.188;2022-10-16T05:45:30;14.80;99.90
9939;DHT22;5008;50.656;7.188;2022-10-16T05:47:57;14.80;99.90
9939;DHT22;5008;50.656;7.188;2022-10-16T05:50:24;14.90;99.90
9939;DHT22;5008;50.656;7.188;2022-10-16T05:52:51;14.90;99.90
9939;DHT22;5008;50.656;7.188;2022-10-16T05:55:18;14.90;99.90
9939;DHT22;5008;50.656;7.188;2022-10-16T05:57:45;14.90;99.90
9939;DHT22;5008;50.656;7.188;2022-10-16T06:00:13;15.00;99.90
9939;DHT22;5008;50.656;7.188;2022-10-16T06:02:40;15.00;99.90
9939;DHT22;5008;50.656;7.188;2022-10-16T06:05:07;14.90;99.90
9939;DHT22;5008;50.656;7.188;2022-10-16T06:07:35;14.90;99.90
9939;DHT22;5008;50.656;7.188;2022-10-16T06:10:02;15.00;99.90
9939;DHT22;5008;50.656;7.188;2022-10-16T06:12:29;14.90;99.90
9939;DHT22;5008;50.656;7.188;2022-10-16T06:14:56;14.90;99.90
9939;DHT22;5008;50.656;7.188;2022-10-16T06:17:24;15.00;99.90
9939;DHT22;5008;50.656;7.188;2022-10-16T06:19:51;15.00;99.90
9939;DHT22;5008;50.656;7.188;2022-10-16T06:22:18;14.90;99.90
9939;DHT22;5008;50.656;7.188;2022-10-16T06:24:45;14.90;99.90
9939;DHT22;5008;50.656;7.188;2022-10-16T06:27:13;14.90;99.90
9939;DHT22;5008;50.656;7.188;2022-10-16T06:29:39;14.90;99.90
9939;DHT22;5008;50.656;7.188;2022-10-16T06:32:08;14.90;99.90
9939;DHT22;5008;50.656;7.188;2022-10-16T06:34:37;14.90;99.90
9939;DHT22;5008;50.656;7.188;2022-10-16T06:37:05;14.90;99.90
9939;DHT22;5008;50.656;7.188;2022-10-16T06:39:32;14.80;99.90
9939;DHT22;5008;50.656;7.188;2022-10-16T06:41:59;14.80;99.90
9939;DHT22;5008;50.656;7.188;2022-10-16T06:44:26;14.80;99.90
9939;DHT22;5008;50.656;7.188;2022-10-16T06:46:52;14.80;99.90
9939;DHT22;5008;50.656;7.188;2022-10-16T06:49:19;14.80;99.90
9939;DHT22;5008;50.656;7.188;2022-10-16T06:51:49;14.80;99.90
9939;DHT22;5008;50.656;7.188;2022-10-16T06:54:16;14.80;99.90
9939;DHT22;5008;50.656;7.188;2022-10-16T06:56:43;14.90;99.90
9939;DHT22;5008;50.656;7.188;2022-10-16T06:59:10;14.90;99.90
9939;DHT22;5008;50.656;7.188;2022-10-16T07:01:37;14.90;99.90
9939;DHT22;5008;50.656;7.188;2022-10-16T07:04:03;14.90;99.90
9939;DHT22;5008;50.656;7.188;2022-10-16T07:06:32;14.90;99.90
9939;DHT22;5008;50.656;7.188;2022-10-16T07:09:03;14.90;99.90
9939;DHT22;5008;50.656;7.188;2022-10-16T07:11:30;15.00;99.90
9939;DHT22;5008;50.656;7.188;2022-10-16T07:13:57;15.00;99.90
9939;DHT22;5008;50.656;7.188;2022-10-16T07:16:26;14.90;99.90
9939;DHT22;5008;50.656;7.188;2022-10-16T07:18:54;14.90;99.90
9939;DHT22;5008;50.656;7.188;2022-10-16T07:21:24;15.00;99.90
9939;DHT22;5008;50.656;7.188;2022-10-16T07:23:52;15.00;99.90
9939;DHT22;5008;50.656;7.188;2022-10-16T07:26:20;15.00;99.90
9939;DHT22;5008;50.656;7.188;2022-10-16T07:28:48;15.00;99.90
9939;DHT22;5008;50.656;7.188;2022-10-16T07:31:16;15.10;99.90
9939;DHT22;5008;50.656;7.188;2022-10-16T07:33:44;15.10;99.90
9939;DHT22;5008;50.656;7.188;2022-10-16T07:36:11;15.10;99.90
9939;DHT22;5008;50.656;7.188;2022-10-16T07:38:38;15.20;99.90
9939;DHT22;5008;50.656;7.188;2022-10-16T07:41:07;15.20;99.90
9939;DHT22;5008;50.656;7.188;2022-10-16T07:43:35;15.20;99.90
9939;DHT22;5008;50.656;7.188;2022-10-16T07:46:02;15.20;99.90
9939;DHT22;5008;50.656;7.188;2022-10-16T07:48:31;15.30;99.90
9939;DHT22;5008;50.656;7.188;2022-10-16T07:51:04;15.30;99.90
9939;DHT22;5008;50.656;7.188;2022-10-16T07:53:31;15.30;99.90
9939;DHT22;5008;50.656;7.188;2022-10-16T07:56:00;15.40;99.90
9939;DHT22;5008;50.656;7.188;2022-10-16T07:58:27;15.40;99.90
9939;DHT22;5008;50.656;7.188;2022-10-16T08:00:56;15.50;99.90
9939;DHT22;5008;50.656;7.188;2022-10-16T08:03:23;15.50;99.90
9939;DHT22;5008;50.656;7.188;2022-10-16T08:05:51;15.60;99.90
9939;DHT22;5008;50.656;7.188;2022-10-16T08:08:18;15.60;99.90
9939;DHT22;5008;50.656;7.188;2022-10-16T08:10:45;15.70;99.90
9939;DHT22;5008;50.656;7.188;2022-10-16T08:13:12;15.70;99.90
9939;DHT22;5008;50.656;7.188;2022-10-16T08:15:40;15.70;99.90
9939;DHT22;5008;50.656;7.188;2022-10-16T08:18:10;15.70;99.90
9939;DHT22;5008;50.656;7.188;2022-10-16T08:20:40;15.70;99.90
9939;DHT22;5008;50.656;7.188;2022-10-16T08:23:07;15.70;99.90
9939;DHT22;5008;50.656;7.188;2022-10-16T08:25:35;15.70;99.90
9939;DHT22;5008;50.656;7.188;2022-10-16T08:28:03;15.70;99.90
9939;DHT22;5008;50.656;7.188;2022-10-16T08:30:31;15.70;99.90
9939;DHT22;5008;50.656;7.188;2022-10-16T08:32:58;15.70;99.90
9939;DHT22;5008;50.656;7.188;2022-10-16T08:35:32;15.70;99.90
9939;DHT22;5008;50.656;7.188;2022-10-16T08:37:59;15.70;99.90
9939;DHT22;5008;50.656;7.188;2022-10-16T08:40:28;15.80;99.90
9939;DHT22;5008;50.656;7.188;2022-10-16T08:43:09;15.80;99.90
9939;DHT22;5008;50.656;7.188;2022-10-16T08:45:46;15.90;99.90
9939;DHT22;5008;50.656;7.188;2022-10-16T08:48:20;16.00;99.90
9939;DHT22;5008;50.656;7.188;2022-10-16T08:50:51;16.10;99.90
9939;DHT22;5008;50.656;7.188;2022-10-16T08:53:20;16.20;99.90
9939;DHT22;5008;50.656;7.188;2022-10-16T08:55:51;16.30;99.90
9939;DHT22;5008;50.656;7.188;2022-10-16T08:58:20;16.40;99.90
9939;DHT22;5008;50.656;7.188;2022-10-16T09:00:49;16.50;99.90
9939;DHT22;5008;50.656;7.188;2022-10-16T09:03:32;16.60;99.90
9939;DHT22;5008;50.656;7.188;2022-10-16T09:06:21;16.60;99.90
9939;DHT22;5008;50.656;7.188;2022-10-16T09:09:02;16.70;99.90
9939;DHT22;5008;50.656;7.188;2022-10-16T09:11:41;16.80;99.90
9939;DHT22;5008;50.656;7.188;2022-10-16T10:03:35;17.50;99.90
9939;DHT22;5008;50.656;7.188;2022-10-16T10:06:16;17.70;99.90
9939;DHT22;5008;50.656;7.188;2022-10-16T10:08:58;17.80;99.90
9939;DHT22;5008;50.656;7.188;2022-10-16T10:11:48;17.90;99.90
9939;DHT22;5008;50.656;7.188;2022-10-16T10:14:27;17.90;99.90
9939;DHT22;5008;50.656;7.188;2022-10-16T10:17:11;18.00;99.90
9939;DHT22;5008;50.656;7.188;2022-10-16T10:19:44;18.20;99.90
9939;DHT22;5008;50.656;7.188;2022-10-16T10:22:27;18.30;99.90
9939;DHT22;5008;50.656;7.188;2022-10-16T10:25:15;18.50;99.90
9939;DHT22;5008;50.656;7.188;2022-10-16T10:27:59;18.50;99.90
9939;DHT22;5008;50.656;7.188;2022-10-16T10:30:35;18.60;99.90
9939;DHT22;5008;50.656;7.188;2022-10-16T10:33:16;18.60;99.90
9939;DHT22;5008;50.656;7.188;2022-10-16T10:35:54;18.60;99.90
9939;DHT22;5008;50.656;7.188;2022-10-16T10:38:33;18.70;99.90
9939;DHT22;5008;50.656;7.188;2022-10-16T10:41:21;18.60;99.90
9939;DHT22;5008;50.656;7.188;2022-10-16T10:44:01;18.50;99.90
9939;DHT22;5008;50.656;7.188;2022-10-16T10:46:34;18.50;99.90
9939;DHT22;5008;50.656;7.188;2022-10-16T10:49:19;18.40;99.90
9939;DHT22;5008;50.656;7.188;2022-10-16T10:52:02;18.30;99.90
9939;DHT22;5008;50.656;7.188;2022-10-16T10:54:49;18.40;99.90
9939;DHT22;5008;50.656;7.188;2022-10-16T10:57:25;18.30;99.90
9939;DHT22;5008;50.656;7.188;2022-10-16T11:00:00;18.30;99.90
9939;DHT22;5008;50.656;7.188;2022-10-16T11:02:36;18.40;99.90
9939;DHT22;5008;50.656;7.188;2022-10-16T11:05:27;18.50;99.90
9939;DHT22;5008;50.656;7.188;2022-10-16T11:07:59;18.40;99.90
9939;DHT22;5008;50.656;7.188;2022-10-16T11:10:30;18.40;99.90
9939;DHT22;5008;50.656;7.188;2022-10-16T11:13:09;18.50;99.90
9939;DHT22;5008;50.656;7.188;2022-10-16T11:15:42;18.60;99.90
9939;DHT22;5008;50.656;7.188;2022-10-16T11:18:16;18.60;99.90
9939;DHT22;5008;50.656;7.188;2022-10-16T11:20:48;18.70;99.90
9939;DHT22;5008;50.656;7.188;2022-10-16T11:23:25;18.90;99.90
9939;DHT22;5008;50.656;7.188;2022-10-16T11:26:02;19.10;99.90
9939;DHT22;5008;50.656;7.188;2022-10-16T11:28:46;19.10;99.90
9939;DHT22;5008;50.656;7.188;2022-10-16T11:31:27;19.10;99.90
9939;DHT22;5008;50.656;7.188;2022-10-16T11:34:01;19.00;99.90
9939;DHT22;5008;50.656;7.188;2022-10-16T11:36:35;18.90;99.90
9939;DHT22;5008;50.656;7.188;2022-10-16T11:39:11;18.80;99.90
9939;DHT22;5008;50.656;7.188;2022-10-16T11:41:47;18.90;99.90
9939;DHT22;5008;50.656;7.188;2022-10-16T11:44:23;19.10;99.90
9939;DHT22;5008;50.656;7.188;2022-10-16T11:47:02;19.10;99.90
9939;DHT22;5008;50.656;7.188;2022-10-16T11:49:33;19.10;99.90
9939;DHT22;5008;50.656;7.188;2022-10-16T11:52:05;19.00;99.90
9939;DHT22;5008;50.656;7.188;2022-10-16T11:54:41;18.90;99.90
9939;DHT22;5008;50.656;7.188;2022-10-16T11:57:15;18.90;99.90
9939;DHT22;5008;50.656;7.188;2022-10-16T11:59:47;18.80;99.90
9939;DHT22;5008;50.656;7.188;2022-10-16T12:02:34;18.80;99.90
9939;DHT22;5008;50.656;7.188;2022-10-16T12:05:12;18.70;99.90
9939;DHT22;5008;50.656;7.188;2022-10-16T12:08:12;18.70;99.90
9939;DHT22;5008;50.656;7.188;2022-10-16T12:11:19;18.80;99.90
9939;DHT22;5008;50.656;7.188;2022-10-16T12:13:47;18.90;99.90
9939;DHT22;5008;50.656;7.188;2022-10-16T12:16:23;19.00;99.90
9939;DHT22;5008;50.656;7.188;2022-10-16T12:19:07;19.10;99.90
9939;DHT22;5008;50.656;7.188;2022-10-16T12:21:36;19.20;99.90
9939;DHT22;5008;50.656;7.188;2022-10-16T12:24:04;19.40;99.90
9939;DHT22;5008;50.656;7.188;2022-10-16T12:26:34;19.30;99.90
9939;DHT22;5008;50.656;7.188;2022-10-16T12:29:14;19.40;99.90
9939;DHT22;5008;50.656;7.188;2022-10-16T12:31:46;19.40;99.90
9939;DHT22;5008;50.656;7.188;2022-10-16T12:34:21;19.20;99.90
9939;DHT22;5008;50.656;7.188;2022-10-16T12:36:50;19.10;99.90
9939;DHT22;5008;50.656;7.188;2022-10-16T12:39:21;19.20;99.90
9939;DHT22;5008;50.656;7.188;2022-10-16T12:42:00;19.20;99.90
9939;DHT22;5008;50.656;7.188;2022-10-16T12:44:32;19.30;99.90
9939;DHT22;5008;50.656;7.188;2022-10-16T12:47:00;19.40;99.90
9939;DHT22;5008;50.656;7.188;2022-10-16T12:49:34;19.40;99.90
9939;DHT22;5008;50.656;7.188;2022-10-16T12:52:02;19.40;99.90
9939;DHT22;5008;50.656;7.188;2022-10-16T12:54:34;19.20;99.90
9939;DHT22;5008;50.656;7.188;2022-10-16T12:57:18;19.20;99.90
9939;DHT22;5008;50.656;7.188;2022-10-16T12:59:57;19.20;99.90
9939;DHT22;5008;50.656;7.188;2022-10-16T13:05:32;19.80;99.90
9939;DHT22;5008;50.656;7.188;2022-10-16T13:08:18;19.80;99.90
9939;DHT22;5008;50.656;7.188;2022-10-16T13:10:57;19.80;99.90
9939;DHT22;5008;50.656;7.188;2022-10-16T13:13:50;19.60;99.90
9939;DHT22;5008;50.656;7.188;2022-10-16T13:16:26;19.60;99.90
9939;DHT22;5008;50.656;7.188;2022-10-16T13:19:06;19.60;99.90
9939;DHT22;5008;50.656;7.188;2022-10-16T13:21:42;19.60;99.90
9939;DHT22;5008;50.656;7.188;2022-10-16T13:24:23;19.60;99.90
9939;DHT22;5008;50.656;7.188;2022-10-16T13:26:56;19.50;99.90
9939;DHT22;5008;50.656;7.188;2022-10-16T13:29:32;19.40;99.90
9939;DHT22;5008;50.656;7.188;2022-10-16T13:32:01;19.40;99.90
9939;DHT22;5008;50.656;7.188;2022-10-16T13:34:41;19.40;99.90
9939;DHT22;5008;50.656;7.188;2022-10-16T13:37:17;19.30;99.90
9939;DHT22;5008;50.656;7.188;2022-10-16T13:39:44;19.20;99.90
9939;DHT22;5008;50.656;7.188;2022-10-16T13:42:14;19.20;99.90
9939;DHT22;5008;50.656;7.188;2022-10-16T13:44:45;19.10;99.90
9939;DHT22;5008;50.656;7.188;2022-10-16T13:47:18;19.10;99.90
9939;DHT22;5008;50.656;7.188;2022-10-16T13:49:46;19.10;99.90
9939;DHT22;5008;50.656;7.188;2022-10-16T13:52:18;19.10;99.90
9939;DHT22;5008;50.656;7.188;2022-10-16T13:54:45;19.20;99.90
9939;DHT22;5008;50.656;7.188;2022-10-16T13:57:14;19.20;99.90
9939;DHT22;5008;50.656;7.188;2022-10-16T13:59:42;19.20;99.90
9939;DHT22;5008;50.656;7.188;2022-10-16T14:02:19;19.10;99.90
9939;DHT22;5008;50.656;7.188;2022-10-16T14:04:48;19.10;99.90
9939;DHT22;5008;50.656;7.188;2022-10-16T14:07:21;19.00;99.90
9939;DHT22;5008;50.656;7.188;2022-10-16T14:09:50;19.00;99.90
9939;DHT22;5008;50.656;7.188;2022-10-16T14:12:17;18.90;99.90
9939;DHT22;5008;50.656;7.188;2022-10-16T14:14:48;18.90;99.90
9939;DHT22;5008;50.656;7.188;2022-10-16T14:17:18;18.90;99.90
9939;DHT22;5008;50.656;7.188;2022-10-16T14:19:46;18.90;99.90
9939;DHT22;5008;50.656;7.188;2022-10-16T14:22:28;18.90;99.90
9939;DHT22;5008;50.656;7.188;2022-10-16T14:24:56;18.90;99.90
9939;DHT22;5008;50.656;7.188;2022-10-16T14:27:29;18.90;99.90
9939;DHT22;5008;50.656;7.188;2022-10-16T14:30:15;18.90;99.90
9939;DHT22;5008;50.656;7.188;2022-10-16T14:32:53;18.90;99.90
9939;DHT22;5008;50.656;7.188;2022-10-16T14:35:25;18.80;99.90
9939;DHT22;5008;50.656;7.188;2022-10-16T14:37:53;18.80;99.90
9939;DHT22;5008;50.656;7.188;2022-10-16T14:40:23;18.80;99.90
9939;DHT22;5008;50.656;7.188;2022-10-16T14:42:51;18.90;99.90
9939;DHT22;5008;50.656;7.188;2022-10-16T14:45:21;18.80;99.90
9939;DHT22;5008;50.656;7.188;2022-10-16T14:47:50;18.80;99.90
9939;DHT22;5008;50.656;7.188;2022-10-16T14:50:19;18.80;99.90
9939;DHT22;5008;50.656;7.188;2022-10-16T14:52:46;18.80;99.90
9939;DHT22;5008;50.656;7.188;2022-10-16T14:55:13;18.80;99.90
9939;DHT22;5008;50.656;7.188;2022-10-16T14:57:40;18.80;99.90
9939;DHT22;5008;50.656;7.188;2022-10-16T15:00:15;18.80;99.90
9939;DHT22;5008;50.656;7.188;2022-10-16T15:02:44;18.70;99.90
9939;DHT22;5008;50.656;7.188;2022-10-16T15:05:14;18.70;99.90
9939;DHT22;5008;50.656;7.188;2022-10-16T15:07:41;18.70;99.90
9939;DHT22;5008;50.656;7.188;2022-10-16T15:10:09;18.70;99.90
9939;DHT22;5008;50.656;7.188;2022-10-16T15:15:21;18.60;99.90
9939;DHT22;5008;50.656;7.188;2022-10-16T15:17:51;18.50;99.90
9939;DHT22;5008;50.656;7.188;2022-10-16T15:20:21;18.50;99.90
9939;DHT22;5008;50.656;7.188;2022-10-16T15:22:48;18.50;99.90
9939;DHT22;5008;50.656;7.188;2022-10-16T15:25:27;18.50;99.90
9939;DHT22;5008;50.656;7.188;2022-10-16T15:27:55;18.40;99.90
9939;DHT22;5008;50.656;7.188;2022-10-16T15:30:22;18.40;99.90
9939;DHT22;5008;50.656;7.188;2022-10-16T15:32:49;18.40;99.90
9939;DHT22;5008;50.656;7.188;2022-10-16T15:35:17;18.30;99.90
9939;DHT22;5008;50.656;7.188;2022-10-16T15:37:44;18.20;99.90
9939;DHT22;5008;50.656;7.188;2022-10-16T15:40:11;18.30;99.90
9939;DHT22;5008;50.656;7.188;2022-10-16T15:42:37;18.30;99.90
9939;DHT22;5008;50.656;7.188;2022-10-16T15:45:05;18.20;99.90
9939;DHT22;5008;50.656;7.188;2022-10-16T15:47:32;18.20;99.90
9939;DHT22;5008;50.656;7.188;2022-10-16T15:49:59;18.20;99.90
9939;DHT22;5008;50.656;7.188;2022-10-16T15:52:27;18.10;99.90
9939;DHT22;5008;50.656;7.188;2022-10-16T15:54:57;18.20;99.90
9939;DHT22;5008;50.656;7.188;2022-10-16T15:57:23;18.10;99.90
9939;DHT22;5008;50.656;7.188;2022-10-16T15:59:51;18.10;99.90
9939;DHT22;5008;50.656;7.188;2022-10-16T16:02:18;18.00;99.90
9939;DHT22;5008;50.656;7.188;2022-10-16T16:04:44;18.10;99.90
9939;DHT22;5008;50.656;7.188;2022-10-16T16:07:11;18.00;99.90
9939;DHT22;5008;50.656;7.188;2022-10-16T16:09:39;18.00;99.90
9939;DHT22;5008;50.656;7.188;2022-10-16T16:12:06;18.00;99.90
9939;DHT22;5008;50.656;7.188;2022-10-16T16:14:33;18.10;99.90
9939;DHT22;5008;50.656;7.188;2022-10-16T16:17:00;18.10;99.90
9939;DHT22;5008;50.656;7.188;2022-10-16T16:19:27;18.00;99.90
9939;DHT22;5008;50.656;7.188;2022-10-16T16:21:54;17.90;99.90
9939;DHT22;5008;50.656;7.188;2022-10-16T16:24:21;18.00;99.90
9939;DHT22;5008;50.656;7.188;2022-10-16T16:26:49;18.00;99.90
9939;DHT22;5008;50.656;7.188;2022-10-16T16:29:16;18.00;99.90
9939;DHT22;5008;50.656;7.188;2022-10-16T16:31:42;18.00;99.90
9939;DHT22;5008;50.656;7.188;2022-10-16T16:34:10;17.90;99.90
9939;DHT22;5008;50.656;7.188;2022-10-16T16:36:37;17.90;99.90
9939;DHT22;5008;50.656;7.188;2022-10-16T16:39:05;17.90;99.90
9939;DHT22;5008;50.656;7.188;2022-10-16T16:41:32;17.90;99.90
9939;DHT22;5008;50.656;7.188;2022-10-16T16:44:05;17.90;99.90
9939;DHT22;5008;50.656;7.188;2022-10-16T16:46:33;17.80;99.90
9939;DHT22;5008;50.656;7.188;2022-10-16T16:49:00;17.80;99.90
9939;DHT22;5008;50.656;7.188;2022-10-16T16:51:28;17.80;99.90
9939;DHT22;5008;50.656;7.188;2022-10-16T16:53:55;17.70;99.90
9939;DHT22;5008;50.656;7.188;2022-10-16T16:56:23;17.70;99.90
9939;DHT22;5008;50.656;7.188;2022-10-16T16:58:53;17.70;99.90
9939;DHT22;5008;50.656;7.188;2022-10-16T17:01:23;17.70;99.90
9939;DHT22;5008;50.656;7.188;2022-10-16T17:03:52;17.70;99.90
9939;DHT22;5008;50.656;7.188;2022-10-16T17:06:20;17.60;99.90
9939;DHT22;5008;50.656;7.188;2022-10-16T17:08:49;17.60;99.90
9939;DHT22;5008;50.656;7.188;2022-10-16T17:11:18;17.60;99.90
9939;DHT22;5008;50.656;7.188;2022-10-16T17:13:46;17.60;99.90
9939;DHT22;5008;50.656;7.188;2022-10-16T17:16:13;17.50;99.90
9939;DHT22;5008;50.656;7.188;2022-10-16T17:18:41;17.60;99.90